Terminal Aerodrome Forecast
Issued by NWS

Home | Current Version | Previous Version | Text Only | Print | Product List | Glossary On
Versions: 1 2 3 4 5 6 7 8 9 10 11 12 13 14 15 16 17
000
FTUS42 TJSJ 301424 AAA
TAFJBQ
TAF AMD
TJBQ 301424Z 3014/3112 10014G25KT P6SM SCT025 SCT040
     FM301630 08015G23KT P6SM VCTS BKN025CB BKN040
     FM302230 09010KT P6SM VCSH SCT025 SCT040
      AMD NOT SKED 3102/3111=

USA.gov is the U.S. government's official web portal to all federal, state and local government web resources and services.